This is the latest recevied weather packets stored in our database for station/object KN6WGU. If no packets are shown the sender has not sent any weather packets the latest 10 day(s).
| Time | Temp. | Humidity | Pressure | Rain* | Wind** | Luminosity | Snow |
|---|---|---|---|---|---|---|---|
| 1777913933 | 21.67° C | 48% | 998.9 hPa | 0 mm | - | 381 W/m² | - |
| 1777913629 | 21.67° C | 46% | 999.1 hPa | 0 mm | - | 265 W/m² | - |
| 1777913326 | 21.11° C | 51% | 999.1 hPa | 0 mm | - | 69 W/m² | - |
| 1777913023 | 21.67° C | 47% | 999.2 hPa | 0 mm | - | 74 W/m² | - |
| 1777912719 | 21.11° C | 48% | 999.2 hPa | 0 mm | - | 58 W/m² | - |
| 1777912415 | 21.67° C | 48% | 999.1 hPa | 0 mm | - | 57 W/m² | - |
| 1777912111 | 21.11° C | 51% | 999 hPa | 0 mm | - | 91 W/m² | - |
| 1777911807 | 21.11° C | 49% | 999.3 hPa | 0 mm | - | 313 W/m² | - |
| 1777911504 | 20.56° C | 51% | 999.3 hPa | 0 mm | - | 53 W/m² | - |
| 1777911201 | 20.56° C | 48% | 999.4 hPa | 0 mm | - | 52 W/m² | - |
| 1777910898 | 20° C | 50% | 999.5 hPa | 0 mm | - | 84 W/m² | - |
| 1777910595 | 20.56° C | 49% | 999.5 hPa | 0 mm | - | 51 W/m² | - |
| 1777910292 | 20° C | 50% | 999.5 hPa | 0 mm | - | 51 W/m² | - |
| 1777909989 | 20° C | 51% | 999.5 hPa | 0 mm | - | 72 W/m² | - |
| 1777909686 | 19.44° C | 55% | 999.6 hPa | 0 mm | - | 51 W/m² | - |
| 1777909383 | 18.89° C | 54% | 999.6 hPa | 0 mm | - | 58 W/m² | - |
| 1777909081 | 18.89° C | 54% | 999.8 hPa | 0 mm | - | 50 W/m² | - |
| 1777908779 | 18.89° C | 56% | 999.7 hPa | 0 mm | - | 64 W/m² | - |
| 1777908475 | 18.89° C | 54% | 999.8 hPa | 0 mm | - | 78 W/m² | - |
| 1777908172 | 18.89° C | 55% | 999.8 hPa | 0 mm | - | 54 W/m² | - |
| 1777907868 | 18.89° C | 54% | 999.9 hPa | 0 mm | - | 49 W/m² | - |
| 1777907564 | 18.33° C | 57% | 1000.1 hPa | 0 mm | - | 49 W/m² | - |
| 1777907260 | 18.33° C | 54% | 1000 hPa | 0 mm | - | 49 W/m² | - |
| 1777906957 | 18.33° C | 54% | 1000.1 hPa | 0 mm | - | 49 W/m² | - |
| 1777906654 | 18.33° C | 53% | 1000.2 hPa | 0 mm | - | 49 W/m² | - |
* Rain latest hour (hover to see other rain measurements)
** Current wind speed in m/s (hover to see current wind gust speed)